KSNC

Details ICAO KSNC
Name CHESTER
Region United States
Timezone America/New_York (UTC-5.0)
Plans Departing 3
Arriving 4
Stats Elevation 416 ft / 127 m (AMSL)
Location 41.383812° -72.506348°
Runways 1
Magnetic Variation 13.779° W
Sunrise 2017-12-11 12:07:37 UTC / 2017-12-11 07:07:37 Local
Sunset 2017-12-11 21:22:02 UTC / 2017-12-11 16:22:02 Local
Advertisement - Login to hide

Runways

ID Width Length Bearing (true) Bearing (mag) Surface Threshold Offset Overrun Length
17 50 ft / 15 m 2,569 ft / 783 m 160.92° 174.70° Asphalt 559 ft / 170 m 0 ft / 0 m
35 50 ft / 15 m 2,569 ft / 783 m 340.92° 354.70° Asphalt 0 ft / 0 m 0 ft / 0 m

Map

Weather


0- 5 10 15 20 25 30 35+ Temperature / ° C

Clouds and Precipitation
Forecast for 2017-12-11 12:00 UTC. Updated 25 minutes ago

Ground ~20,000 ft ~40,000 ft Winds

METAR

KSNC 110735Z AUTO VRB05KT 10SM FEW070 SCT080 01/M07 A2996 RMK AO2

TAF

Not found

Frequencies

Recorded 118.32 MHz ASOS
Approach 124.07 MHz NEW YORK APP/DEP
Unicom 122.72 MHz CTAF/UNICOM
Warning: Do not use this data for real-world aviation or navigation. No guarantee of current accuracy is given.